Terminal Aerodrome Forecast
Issued by NWS

Home | Current Version | Previous Version | Text Only | Print | Product List | Glossary On
Versions: 1 2 3 4 5 6 7 8 9 10 11 12 13 14
000
FTUS43 KAPX 212320
TAFAPN
TAF
KAPN 212320Z 2200/2224 VRB03KT P6SM SCT250
     FM220300 00000KT 4SM BR SCT150
     FM220500 00000KT 1 1/2SM BR BKN100
     FM221400 21006KT P6SM SCT120=

USA.gov is the U.S. government's official web portal to all federal, state and local government web resources and services.